sensor_id;sensor_type;location;lat;lon;timestamp;P1;durP1;ratioP1;P2;durP2;ratioP2
77531;SDS011;70100;44.486;0.266;2023-12-07T00:03:01;22.93;;;7.83;;
77531;SDS011;70100;44.486;0.266;2023-12-07T00:08:34;16.83;;;7.20;;
77531;SDS011;70100;44.486;0.266;2023-12-07T00:14:07;40.83;;;9.17;;
77531;SDS011;70100;44.486;0.266;2023-12-07T00:19:39;31.73;;;9.13;;
77531;SDS011;70100;44.486;0.266;2023-12-07T00:25:13;44.87;;;9.57;;
77531;SDS011;70100;44.486;0.266;2023-12-07T00:30:45;54.37;;;9.93;;
77531;SDS011;70100;44.486;0.266;2023-12-07T00:36:18;27.40;;;8.93;;
77531;SDS011;70100;44.486;0.266;2023-12-07T00:41:49;40.67;;;9.53;;
77531;SDS011;70100;44.486;0.266;2023-12-07T00:47:23;91.37;;;10.33;;
77531;SDS011;70100;44.486;0.266;2023-12-07T00:52:56;69.57;;;10.50;;
77531;SDS011;70100;44.486;0.266;2023-12-07T00:58:28;56.10;;;10.60;;
77531;SDS011;70100;44.486;0.266;2023-12-07T01:04:00;56.00;;;10.50;;
77531;SDS011;70100;44.486;0.266;2023-12-07T01:09:33;48.10;;;9.53;;
77531;SDS011;70100;44.486;0.266;2023-12-07T01:15:07;46.07;;;9.87;;
77531;SDS011;70100;44.486;0.266;2023-12-07T01:20:38;32.87;;;10.23;;
77531;SDS011;70100;44.486;0.266;2023-12-07T01:26:12;23.77;;;9.40;;
77531;SDS011;70100;44.486;0.266;2023-12-07T01:31:46;24.20;;;8.00;;
77531;SDS011;70100;44.486;0.266;2023-12-07T01:37:19;27.73;;;7.13;;
77531;SDS011;70100;44.486;0.266;2023-12-07T01:42:52;21.17;;;6.83;;
77531;SDS011;70100;44.486;0.266;2023-12-07T01:48:24;27.33;;;8.40;;
77531;SDS011;70100;44.486;0.266;2023-12-07T01:53:57;17.73;;;7.47;;
77531;SDS011;70100;44.486;0.266;2023-12-07T01:59:31;17.30;;;7.33;;
77531;SDS011;70100;44.486;0.266;2023-12-07T02:05:04;19.87;;;7.43;;
77531;SDS011;70100;44.486;0.266;2023-12-07T02:10:37;17.47;;;7.83;;
77531;SDS011;70100;44.486;0.266;2023-12-07T02:16:11;14.00;;;7.10;;
77531;SDS011;70100;44.486;0.266;2023-12-07T02:21:45;18.27;;;7.97;;
77531;SDS011;70100;44.486;0.266;2023-12-07T02:27:15;12.63;;;6.33;;
77531;SDS011;70100;44.486;0.266;2023-12-07T02:32:48;16.67;;;7.57;;
77531;SDS011;70100;44.486;0.266;2023-12-07T02:38:20;12.23;;;5.80;;
77531;SDS011;70100;44.486;0.266;2023-12-07T02:43:52;12.63;;;6.80;;
77531;SDS011;70100;44.486;0.266;2023-12-07T02:49:25;16.67;;;6.20;;
77531;SDS011;70100;44.486;0.266;2023-12-07T02:54:57;15.60;;;6.57;;
77531;SDS011;70100;44.486;0.266;2023-12-07T03:00:31;12.50;;;5.83;;
77531;SDS011;70100;44.486;0.266;2023-12-07T03:06:02;11.50;;;6.33;;
77531;SDS011;70100;44.486;0.266;2023-12-07T03:11:33;14.07;;;6.47;;
77531;SDS011;70100;44.486;0.266;2023-12-07T03:17:05;11.87;;;5.20;;
77531;SDS011;70100;44.486;0.266;2023-12-07T03:22:37;11.70;;;6.43;;
77531;SDS011;70100;44.486;0.266;2023-12-07T03:28:11;12.30;;;5.43;;
77531;SDS011;70100;44.486;0.266;2023-12-07T03:33:44;23.93;;;6.93;;
77531;SDS011;70100;44.486;0.266;2023-12-07T03:39:19;18.27;;;7.57;;
77531;SDS011;70100;44.486;0.266;2023-12-07T03:44:51;16.83;;;7.20;;
77531;SDS011;70100;44.486;0.266;2023-12-07T03:50:24;12.37;;;5.80;;
77531;SDS011;70100;44.486;0.266;2023-12-07T03:55:56;20.13;;;6.63;;
77531;SDS011;70100;44.486;0.266;2023-12-07T04:01:29;11.13;;;5.87;;
77531;SDS011;70100;44.486;0.266;2023-12-07T04:07:01;10.63;;;6.13;;
77531;SDS011;70100;44.486;0.266;2023-12-07T04:12:34;13.13;;;6.30;;
77531;SDS011;70100;44.486;0.266;2023-12-07T04:18:05;17.40;;;6.27;;
77531;SDS011;70100;44.486;0.266;2023-12-07T04:23:38;13.60;;;7.37;;
77531;SDS011;70100;44.486;0.266;2023-12-07T04:29:10;43.03;;;17.07;;
77531;SDS011;70100;44.486;0.266;2023-12-07T04:34:42;15.30;;;6.70;;
77531;SDS011;70100;44.486;0.266;2023-12-07T04:40:15;15.40;;;6.80;;
77531;SDS011;70100;44.486;0.266;2023-12-07T04:45:47;15.93;;;6.03;;
77531;SDS011;70100;44.486;0.266;2023-12-07T04:51:19;15.97;;;8.13;;
77531;SDS011;70100;44.486;0.266;2023-12-07T04:56:50;13.23;;;7.20;;
77531;SDS011;70100;44.486;0.266;2023-12-07T05:02:23;17.73;;;8.60;;
77531;SDS011;70100;44.486;0.266;2023-12-07T05:07:55;12.93;;;6.93;;
77531;SDS011;70100;44.486;0.266;2023-12-07T05:13:28;17.33;;;8.53;;
77531;SDS011;70100;44.486;0.266;2023-12-07T05:19:01;16.73;;;7.23;;
77531;SDS011;70100;44.486;0.266;2023-12-07T05:24:35;14.67;;;6.97;;
77531;SDS011;70100;44.486;0.266;2023-12-07T05:30:08;19.33;;;8.57;;
77531;SDS011;70100;44.486;0.266;2023-12-07T05:35:39;16.00;;;8.50;;
77531;SDS011;70100;44.486;0.266;2023-12-07T05:41:13;18.43;;;8.20;;
77531;SDS011;70100;44.486;0.266;2023-12-07T05:46:46;14.60;;;5.43;;
77531;SDS011;70100;44.486;0.266;2023-12-07T05:52:19;9.83;;;5.07;;
77531;SDS011;70100;44.486;0.266;2023-12-07T05:57:52;8.20;;;4.87;;
77531;SDS011;70100;44.486;0.266;2023-12-07T06:03:26;10.23;;;5.63;;
77531;SDS011;70100;44.486;0.266;2023-12-07T06:08:57;10.77;;;6.10;;
77531;SDS011;70100;44.486;0.266;2023-12-07T06:14:30;11.73;;;6.33;;
77531;SDS011;70100;44.486;0.266;2023-12-07T06:20:04;7.57;;;4.07;;
77531;SDS011;70100;44.486;0.266;2023-12-07T06:25:35;9.00;;;5.17;;
77531;SDS011;70100;44.486;0.266;2023-12-07T06:31:09;8.73;;;4.33;;
77531;SDS011;70100;44.486;0.266;2023-12-07T06:36:41;8.13;;;3.50;;
77531;SDS011;70100;44.486;0.266;2023-12-07T06:42:14;6.53;;;3.93;;
77531;SDS011;70100;44.486;0.266;2023-12-07T06:47:46;7.27;;;3.80;;
77531;SDS011;70100;44.486;0.266;2023-12-07T06:53:19;11.23;;;5.53;;
77531;SDS011;70100;44.486;0.266;2023-12-07T06:58:49;7.10;;;3.37;;
77531;SDS011;70100;44.486;0.266;2023-12-07T07:04:21;9.03;;;3.70;;
77531;SDS011;70100;44.486;0.266;2023-12-07T07:09:55;7.50;;;4.07;;
77531;SDS011;70100;44.486;0.266;2023-12-07T07:15:27;9.73;;;3.60;;
77531;SDS011;70100;44.486;0.266;2023-12-07T07:20:59;10.43;;;3.70;;
77531;SDS011;70100;44.486;0.266;2023-12-07T07:26:33;8.43;;;3.30;;
77531;SDS011;70100;44.486;0.266;2023-12-07T07:32:06;5.97;;;3.57;;
77531;SDS011;70100;44.486;0.266;2023-12-07T07:37:38;8.30;;;4.00;;
77531;SDS011;70100;44.486;0.266;2023-12-07T07:43:11;4.80;;;2.57;;
77531;SDS011;70100;44.486;0.266;2023-12-07T07:48:44;6.60;;;3.13;;
77531;SDS011;70100;44.486;0.266;2023-12-07T07:54:18;6.10;;;3.33;;
77531;SDS011;70100;44.486;0.266;2023-12-07T07:59:51;6.83;;;2.47;;
77531;SDS011;70100;44.486;0.266;2023-12-07T08:05:23;3.83;;;2.23;;
77531;SDS011;70100;44.486;0.266;2023-12-07T08:10:56;6.23;;;2.77;;
77531;SDS011;70100;44.486;0.266;2023-12-07T08:16:28;4.80;;;2.67;;
77531;SDS011;70100;44.486;0.266;2023-12-07T08:22:01;4.57;;;2.40;;
77531;SDS011;70100;44.486;0.266;2023-12-07T08:27:33;4.67;;;2.47;;
77531;SDS011;70100;44.486;0.266;2023-12-07T08:33:05;6.60;;;2.67;;
77531;SDS011;70100;44.486;0.266;2023-12-07T08:38:38;6.97;;;2.83;;
77531;SDS011;70100;44.486;0.266;2023-12-07T08:44:10;10.93;;;2.87;;
77531;SDS011;70100;44.486;0.266;2023-12-07T08:49:42;5.67;;;2.43;;
77531;SDS011;70100;44.486;0.266;2023-12-07T08:55:16;3.67;;;2.03;;
77531;SDS011;70100;44.486;0.266;2023-12-07T09:00:49;4.57;;;2.37;;
77531;SDS011;70100;44.486;0.266;2023-12-07T09:06:21;4.30;;;2.90;;
77531;SDS011;70100;44.486;0.266;2023-12-07T09:11:54;5.20;;;2.87;;
77531;SDS011;70100;44.486;0.266;2023-12-07T09:17:28;5.50;;;2.47;;
77531;SDS011;70100;44.486;0.266;2023-12-07T09:23:00;9.07;;;3.90;;
77531;SDS011;70100;44.486;0.266;2023-12-07T09:28:34;10.27;;;4.13;;
77531;SDS011;70100;44.486;0.266;2023-12-07T09:34:09;3.93;;;2.50;;
77531;SDS011;70100;44.486;0.266;2023-12-07T09:39:39;5.10;;;3.23;;
77531;SDS011;70100;44.486;0.266;2023-12-07T09:45:13;3.93;;;2.37;;
77531;SDS011;70100;44.486;0.266;2023-12-07T09:50:44;5.80;;;2.10;;
77531;SDS011;70100;44.486;0.266;2023-12-07T09:56:17;5.67;;;2.50;;
77531;SDS011;70100;44.486;0.266;2023-12-07T10:01:51;-1.00;;;-1.00;;
77531;SDS011;70100;44.486;0.266;2023-12-07T10:07:26;11.23;;;5.10;;
77531;SDS011;70100;44.486;0.266;2023-12-07T10:12:56;7.33;;;3.27;;
77531;SDS011;70100;44.486;0.266;2023-12-07T10:18:30;10.53;;;4.87;;
77531;SDS011;70100;44.486;0.266;2023-12-07T10:24:03;4.77;;;2.63;;
77531;SDS011;70100;44.486;0.266;2023-12-07T10:29:37;4.87;;;3.30;;
77531;SDS011;70100;44.486;0.266;2023-12-07T10:35:09;8.50;;;3.57;;
77531;SDS011;70100;44.486;0.266;2023-12-07T10:40:42;4.77;;;2.67;;
77531;SDS011;70100;44.486;0.266;2023-12-07T10:46:14;5.90;;;2.77;;
77531;SDS011;70100;44.486;0.266;2023-12-07T10:51:47;5.47;;;3.60;;
77531;SDS011;70100;44.486;0.266;2023-12-07T10:57:18;7.10;;;3.00;;
77531;SDS011;70100;44.486;0.266;2023-12-07T11:02:52;4.00;;;2.27;;
77531;SDS011;70100;44.486;0.266;2023-12-07T11:08:24;4.80;;;2.83;;
77531;SDS011;70100;44.486;0.266;2023-12-07T11:13:57;6.77;;;3.73;;
77531;SDS011;70100;44.486;0.266;2023-12-07T11:25:03;8.83;;;3.70;;
77531;SDS011;70100;44.486;0.266;2023-12-07T11:30:35;5.27;;;2.37;;
77531;SDS011;70100;44.486;0.266;2023-12-07T11:41:43;5.90;;;2.80;;
77531;SDS011;70100;44.486;0.266;2023-12-07T11:52:47;7.73;;;3.20;;
77531;SDS011;70100;44.486;0.266;2023-12-07T11:58:20;5.67;;;2.83;;
77531;SDS011;70100;44.486;0.266;2023-12-07T12:03:53;-1.00;;;-1.00;;
77531;SDS011;70100;44.486;0.266;2023-12-07T12:14:59;5.43;;;3.23;;
77531;SDS011;70100;44.486;0.266;2023-12-07T12:31:37;7.43;;;3.13;;
77531;SDS011;70100;44.486;0.266;2023-12-07T12:37:12;7.27;;;3.70;;
77531;SDS011;70100;44.486;0.266;2023-12-07T12:42:42;10.20;;;3.67;;
77531;SDS011;70100;44.486;0.266;2023-12-07T12:48:14;5.17;;;3.27;;
77531;SDS011;70100;44.486;0.266;2023-12-07T12:53:47;9.77;;;4.00;;
77531;SDS011;70100;44.486;0.266;2023-12-07T12:59:20;5.47;;;3.17;;
77531;SDS011;70100;44.486;0.266;2023-12-07T13:04:52;3.80;;;3.03;;
77531;SDS011;70100;44.486;0.266;2023-12-07T13:10:25;9.00;;;3.40;;
77531;SDS011;70100;44.486;0.266;2023-12-07T13:15:58;5.30;;;2.97;;
77531;SDS011;70100;44.486;0.266;2023-12-07T13:21:32;5.27;;;3.30;;
77531;SDS011;70100;44.486;0.266;2023-12-07T13:27:05;7.30;;;3.70;;
77531;SDS011;70100;44.486;0.266;2023-12-07T13:32:38;5.00;;;3.17;;
77531;SDS011;70100;44.486;0.266;2023-12-07T13:38:11;8.00;;;3.73;;
77531;SDS011;70100;44.486;0.266;2023-12-07T13:43:42;3.40;;;3.10;;
77531;SDS011;70100;44.486;0.266;2023-12-07T13:49:15;6.87;;;3.23;;
77531;SDS011;70100;44.486;0.266;2023-12-07T13:54:47;6.50;;;2.97;;
77531;SDS011;70100;44.486;0.266;2023-12-07T14:00:20;8.83;;;3.50;;
77531;SDS011;70100;44.486;0.266;2023-12-07T14:05:51;6.17;;;3.70;;
77531;SDS011;70100;44.486;0.266;2023-12-07T14:11:24;6.17;;;3.23;;
77531;SDS011;70100;44.486;0.266;2023-12-07T14:16:57;5.67;;;3.07;;
77531;SDS011;70100;44.486;0.266;2023-12-07T14:28:02;7.70;;;4.53;;
77531;SDS011;70100;44.486;0.266;2023-12-07T14:33:35;8.57;;;4.33;;
77531;SDS011;70100;44.486;0.266;2023-12-07T14:39:07;10.13;;;5.80;;
77531;SDS011;70100;44.486;0.266;2023-12-07T14:44:40;6.83;;;4.10;;
77531;SDS011;70100;44.486;0.266;2023-12-07T14:50:13;7.50;;;3.30;;
77531;SDS011;70100;44.486;0.266;2023-12-07T14:55:47;7.83;;;3.93;;
77531;SDS011;70100;44.486;0.266;2023-12-07T15:01:20;10.87;;;5.20;;
77531;SDS011;70100;44.486;0.266;2023-12-07T15:06:54;10.77;;;3.80;;
77531;SDS011;70100;44.486;0.266;2023-12-07T15:12:26;6.87;;;3.80;;
77531;SDS011;70100;44.486;0.266;2023-12-07T15:17:58;7.43;;;4.50;;
77531;SDS011;70100;44.486;0.266;2023-12-07T15:23:31;-1.00;;;-1.00;;
77531;SDS011;70100;44.486;0.266;2023-12-07T15:29:05;5.70;;;3.43;;
77531;SDS011;70100;44.486;0.266;2023-12-07T15:34:39;10.93;;;5.50;;
77531;SDS011;70100;44.486;0.266;2023-12-07T15:40:11;11.27;;;6.03;;
77531;SDS011;70100;44.486;0.266;2023-12-07T15:45:43;7.87;;;4.97;;
77531;SDS011;70100;44.486;0.266;2023-12-07T15:51:16;6.80;;;3.87;;
77531;SDS011;70100;44.486;0.266;2023-12-07T15:56:48;8.10;;;4.13;;
77531;SDS011;70100;44.486;0.266;2023-12-07T16:02:21;7.67;;;4.43;;
77531;SDS011;70100;44.486;0.266;2023-12-07T16:07:54;7.23;;;4.00;;
77531;SDS011;70100;44.486;0.266;2023-12-07T16:13:27;7.30;;;5.23;;
77531;SDS011;70100;44.486;0.266;2023-12-07T16:19:00;12.23;;;5.57;;
77531;SDS011;70100;44.486;0.266;2023-12-07T16:24:33;10.93;;;5.33;;
77531;SDS011;70100;44.486;0.266;2023-12-07T16:30:08;5.83;;;3.60;;
77531;SDS011;70100;44.486;0.266;2023-12-07T16:35:38;9.30;;;5.67;;
77531;SDS011;70100;44.486;0.266;2023-12-07T16:41:12;7.83;;;4.47;;
77531;SDS011;70100;44.486;0.266;2023-12-07T16:46:45;9.07;;;5.30;;
77531;SDS011;70100;44.486;0.266;2023-12-07T16:52:18;12.20;;;4.53;;
77531;SDS011;70100;44.486;0.266;2023-12-07T16:57:51;9.17;;;5.50;;
77531;SDS011;70100;44.486;0.266;2023-12-07T17:03:26;10.00;;;4.27;;
77531;SDS011;70100;44.486;0.266;2023-12-07T17:08:58;10.30;;;6.47;;
77531;SDS011;70100;44.486;0.266;2023-12-07T17:14:30;13.47;;;7.53;;
77531;SDS011;70100;44.486;0.266;2023-12-07T17:20:03;3.00;;;2.50;;
77531;SDS011;70100;44.486;0.266;2023-12-07T17:25:35;5.33;;;2.67;;
77531;SDS011;70100;44.486;0.266;2023-12-07T17:31:09;10.17;;;6.13;;
77531;SDS011;70100;44.486;0.266;2023-12-07T17:36:41;7.10;;;4.00;;
77531;SDS011;70100;44.486;0.266;2023-12-07T17:42:12;12.67;;;7.33;;
77531;SDS011;70100;44.486;0.266;2023-12-07T17:47:46;10.97;;;6.87;;
77531;SDS011;70100;44.486;0.266;2023-12-07T17:53:18;12.03;;;6.23;;
77531;SDS011;70100;44.486;0.266;2023-12-07T17:58:52;13.63;;;6.10;;
77531;SDS011;70100;44.486;0.266;2023-12-07T18:04:25;10.77;;;5.77;;
77531;SDS011;70100;44.486;0.266;2023-12-07T18:09:58;7.73;;;5.03;;
77531;SDS011;70100;44.486;0.266;2023-12-07T18:15:31;12.23;;;7.27;;
77531;SDS011;70100;44.486;0.266;2023-12-07T18:21:03;17.83;;;5.93;;
77531;SDS011;70100;44.486;0.266;2023-12-07T18:26:37;7.93;;;5.13;;
77531;SDS011;70100;44.486;0.266;2023-12-07T18:32:09;9.13;;;5.37;;
77531;SDS011;70100;44.486;0.266;2023-12-07T18:37:40;9.93;;;5.33;;
77531;SDS011;70100;44.486;0.266;2023-12-07T18:43:14;11.93;;;5.77;;
77531;SDS011;70100;44.486;0.266;2023-12-07T18:48:47;8.73;;;3.90;;
77531;SDS011;70100;44.486;0.266;2023-12-07T18:54:19;11.47;;;4.60;;
77531;SDS011;70100;44.486;0.266;2023-12-07T18:59:52;11.47;;;5.23;;
77531;SDS011;70100;44.486;0.266;2023-12-07T19:05:25;13.80;;;6.63;;
77531;SDS011;70100;44.486;0.266;2023-12-07T19:10:57;19.93;;;7.53;;
77531;SDS011;70100;44.486;0.266;2023-12-07T19:16:29;14.07;;;7.40;;
77531;SDS011;70100;44.486;0.266;2023-12-07T19:22:04;13.87;;;6.23;;
77531;SDS011;70100;44.486;0.266;2023-12-07T19:27:36;5.77;;;3.67;;
77531;SDS011;70100;44.486;0.266;2023-12-07T19:33:08;5.87;;;4.07;;
77531;SDS011;70100;44.486;0.266;2023-12-07T19:38:40;9.13;;;3.93;;
77531;SDS011;70100;44.486;0.266;2023-12-07T19:44:13;9.43;;;4.70;;
77531;SDS011;70100;44.486;0.266;2023-12-07T19:49:46;9.10;;;4.37;;
77531;SDS011;70100;44.486;0.266;2023-12-07T19:55:19;4.33;;;2.43;;
77531;SDS011;70100;44.486;0.266;2023-12-07T20:00:52;8.57;;;4.27;;
77531;SDS011;70100;44.486;0.266;2023-12-07T20:06:25;7.00;;;2.90;;
77531;SDS011;70100;44.486;0.266;2023-12-07T20:11:57;4.07;;;2.33;;
77531;SDS011;70100;44.486;0.266;2023-12-07T20:17:29;6.33;;;3.57;;
77531;SDS011;70100;44.486;0.266;2023-12-07T20:23:02;11.73;;;5.37;;
77531;SDS011;70100;44.486;0.266;2023-12-07T20:28:36;14.50;;;6.93;;
77531;SDS011;70100;44.486;0.266;2023-12-07T20:34:10;9.37;;;3.27;;
77531;SDS011;70100;44.486;0.266;2023-12-07T20:39:43;10.57;;;4.63;;
77531;SDS011;70100;44.486;0.266;2023-12-07T20:45:15;10.00;;;3.73;;
77531;SDS011;70100;44.486;0.266;2023-12-07T20:50:48;9.67;;;4.10;;
77531;SDS011;70100;44.486;0.266;2023-12-07T20:56:21;4.03;;;2.40;;
77531;SDS011;70100;44.486;0.266;2023-12-07T21:01:54;11.60;;;4.60;;
77531;SDS011;70100;44.486;0.266;2023-12-07T21:07:26;9.77;;;5.00;;
77531;SDS011;70100;44.486;0.266;2023-12-07T21:12:58;9.37;;;4.27;;
77531;SDS011;70100;44.486;0.266;2023-12-07T21:18:31;7.83;;;3.73;;
77531;SDS011;70100;44.486;0.266;2023-12-07T21:24:03;7.00;;;3.57;;
77531;SDS011;70100;44.486;0.266;2023-12-07T21:29:36;11.27;;;4.80;;
77531;SDS011;70100;44.486;0.266;2023-12-07T21:35:10;4.83;;;3.10;;
77531;SDS011;70100;44.486;0.266;2023-12-07T21:40:43;5.03;;;3.30;;
77531;SDS011;70100;44.486;0.266;2023-12-07T21:46:15;6.93;;;3.67;;
77531;SDS011;70100;44.486;0.266;2023-12-07T21:51:48;8.37;;;5.00;;
77531;SDS011;70100;44.486;0.266;2023-12-07T21:57:21;7.00;;;2.93;;
77531;SDS011;70100;44.486;0.266;2023-12-07T22:02:55;8.03;;;3.73;;
77531;SDS011;70100;44.486;0.266;2023-12-07T22:08:29;10.07;;;4.73;;
77531;SDS011;70100;44.486;0.266;2023-12-07T22:14:02;11.23;;;5.03;;
77531;SDS011;70100;44.486;0.266;2023-12-07T22:19:34;5.67;;;3.60;;
77531;SDS011;70100;44.486;0.266;2023-12-07T22:25:08;11.97;;;5.83;;
77531;SDS011;70100;44.486;0.266;2023-12-07T22:30:41;8.10;;;5.00;;
77531;SDS011;70100;44.486;0.266;2023-12-07T22:36:14;-1.00;;;-1.00;;
77531;SDS011;70100;44.486;0.266;2023-12-07T22:41:46;10.40;;;4.73;;
77531;SDS011;70100;44.486;0.266;2023-12-07T22:47:19;8.77;;;4.50;;
77531;SDS011;70100;44.486;0.266;2023-12-07T22:52:52;9.23;;;4.93;;
77531;SDS011;70100;44.486;0.266;2023-12-07T22:58:26;-1.00;;;-1.00;;
77531;SDS011;70100;44.486;0.266;2023-12-07T23:04:00;12.30;;;5.57;;
77531;SDS011;70100;44.486;0.266;2023-12-07T23:09:32;-1.00;;;-1.00;;
77531;SDS011;70100;44.486;0.266;2023-12-07T23:15:06;6.37;;;3.23;;
77531;SDS011;70100;44.486;0.266;2023-12-07T23:20:39;11.07;;;4.70;;
77531;SDS011;70100;44.486;0.266;2023-12-07T23:26:11;7.60;;;4.80;;
77531;SDS011;70100;44.486;0.266;2023-12-07T23:31:43;15.47;;;7.37;;
77531;SDS011;70100;44.486;0.266;2023-12-07T23:37:15;5.63;;;3.93;;
77531;SDS011;70100;44.486;0.266;2023-12-07T23:42:48;10.27;;;5.37;;
77531;SDS011;70100;44.486;0.266;2023-12-07T23:48:21;9.67;;;4.50;;
77531;SDS011;70100;44.486;0.266;2023-12-07T23:53:53;8.50;;;4.97;;
77531;SDS011;70100;44.486;0.266;2023-12-07T23:59:26;9.90;;;4.67;;
